Latest Coastal Weather Observations for Cape Moreton

IDQ60701

Issued at 11:55 am EST Sunday 21 September 2014 (issued every 10 minutes, with the page automatically refreshed every 10 minutes)

About coastal observations | Map of coastal stations | Coastal observations for QLD | Marine services | Other Formats
Station Details ID: 040043 Name: CAPE MORETON LIGHTHOUSE Lat: -27.03 Lon: 153.47 Height: 99.9 m
Data from the previous 72 hours. | See also: Recent months at Cape Moreton
Date/Time
EST
Temp

°C
Wind Pressure Rain
since 9am
mm
Weather Cloud Vis
km
Sea
Height
m
Swell
Dir
 
Speed
knots
Gust
knots
hPa Trend Height
m
Period
s
Dir
21/11:30am 18.4 SE 22 29 1024.6 - 1.2 - - - - - - -
21/11:02am 17.3 SSE 19 25 1024.9 - 1.2 - - - - - - -
21/11:00am 16.9 ESE 6 15 1025.2 - 1.2 - - - - - - -
21/10:46am 16.1 E 9 13 1025.4 - 1.2 - - - - - - -
21/10:30am 18.0 SE 21 25 1025.2 - 0.0 - - - - - - -
21/10:00am 18.8 SE 17 23 1025.4 - 0.0 - - - - - - -
21/09:30am 19.8 ESE 16 19 1025.7 - 0.0 - - - - - - -
21/09:00am 20.4 ESE 17 22 1025.5 - 0.0 - - - - - - -
21/08:30am 19.2 ESE 14 19 1025.5 - 0.0 - - - - - - -
21/08:00am 18.6 ESE 16 17 1025.3 - 0.0 - - - - - - -
21/07:30am 18.3 SSE 13 15 1025.2 - 0.0 - - - - - - -
21/07:00am 19.7 ESE 16 19 1024.9 - 0.0 - - - - - - -
21/06:30am 18.6 ESE 17 22 1024.4 - 0.0 - - - - - - -
21/06:00am 18.3 ESE 18 23 1023.9 - 0.0 - - - - - - -
21/05:30am 18.2 ESE 19 24 1023.5 - 0.0 - - - - - - -
21/05:00am 18.3 ESE 20 23 1023.6 - 0.0 - - - - - - -
21/04:30am 18.2 ESE 19 23 1023.3 - 0.0 - - - - - - -
21/04:00am 18.2 ESE 23 27 1022.6 - 0.0 - - - - - - -
21/03:30am 18.3 ESE 23 29 1022.6 - 0.0 - - - - - - -
21/03:00am 18.4 ESE 25 29 1022.5 - 0.0 - - - - - - -
21/02:30am 18.3 ESE 22 27 1022.9 - 0.0 - - - - - - -
21/02:00am 18.6 ESE 22 27 1023.1 - 0.0 - - - - - - -
21/01:30am 18.6 ESE 22 28 1023.2 - 0.0 - - - - - - -
21/01:00am 18.5 ESE 20 24 1023.6 - 0.0 - - - - - - -
21/12:30am 18.5 ESE 21 25 1023.6 - 0.0 - - - - - - -
21/12:00am 18.5 ESE 21 24 1023.6 - 0.0 - - - - - - -
 
Date/Time
EST
Temp

°C
Wind Pressure Rain
since 9am
mm
Weather Cloud Vis
km
Sea
Height
m
Swell
Dir
 
Speed
knots
Gust
knots
hPa Trend Height
m
Period
s
Dir
20/11:30pm 18.5 ESE 23 29 1023.4 - 0.0 - - - - - - -
20/11:00pm 18.6 ESE 22 27 1023.4 - 0.0 - - - - - - -
20/10:30pm 18.6 ESE 23 26 1023.3 - 0.0 - - - - - - -
20/10:00pm 18.7 ESE 21 26 1023.5 - 0.0 - - - - - - -
20/09:30pm 18.6 ESE 21 26 1023.4 - 0.0 - - - - - - -
20/09:00pm 18.7 ESE 21 25 1023.3 - 0.0 - - - - - - -
20/08:30pm 18.9 ESE 22 25 1022.7 - 0.0 - - - - - - -
20/08:00pm 18.4 ESE 22 26 1022.5 - 0.0 - - - - - - -
20/07:30pm 18.8 ESE 21 26 1022.0 - 0.0 - - - - - - -
20/07:00pm 18.8 ESE 20 23 1021.7 - 0.0 - - - - - - -
20/06:30pm 18.8 ESE 20 25 1021.4 - 0.0 - - - - - - -
20/06:00pm 18.7 ESE 22 25 1020.5 - 0.0 - - - - - - -
20/05:30pm 18.7 ESE 21 24 1020.0 - 0.0 - - - - - - -
20/05:00pm 18.8 ESE 21 24 1019.6 - 0.0 - - - - - - -
20/04:30pm 18.9 ESE 22 27 1019.1 - 0.0 - - - - - - -
20/04:00pm 18.9 E 21 26 1018.9 - 0.0 - - - - - - -
20/03:30pm 19.0 ESE 21 25 1018.8 - 0.0 - - - - - - -
20/03:00pm 19.2 ESE 21 25 1018.7 - 0.0 - - - - - - -
20/02:30pm 19.2 ESE 22 24 1018.5 - 0.0 - - - - - - -
20/02:00pm 20.1 ESE 21 24 1018.7 - 0.0 - - - - - - -
20/01:30pm 19.7 ESE 19 23 1019.0 - 0.0 - - - - - - -
20/01:00pm 20.7 ESE 19 22 1019.2 - 0.0 - - - - - - -
20/12:30pm 21.2 SE 19 22 1019.5 - 0.0 - - - - - - -
20/12:00pm 21.8 SE 15 19 1019.8 - 0.0 - - - - - - -
20/11:30am 20.8 SE 13 16 1020.4 - 0.0 - - - - - - -
20/11:00am 23.0 SE 13 16 1020.6 - 0.0 - - - - - - -
20/10:30am 22.2 SE 13 15 1020.9 - 0.0 - - - - - - -
20/10:00am 22.6 SE 13 16 1021.1 - 0.0 - - - - - - -
20/09:30am 21.3 SSE 15 18 1021.2 - 0.0 - - - - - - -
20/09:00am 21.2 SSE 11 15 1021.4 - 0.0 - - - - - - -
20/08:30am 20.1 S 13 18 1021.4 - 0.0 - - - - - - -
20/08:00am 19.9 S 10 15 1021.0 - 0.0 - - - - - - -
20/07:30am 19.1 S 8 13 1020.5 - 0.0 - - - - - - -
20/07:00am 18.2 SW 8 10 1020.1 - 0.0 - - - - - - -
20/06:30am 17.3 W 11 12 1019.5 - 0.0 - - - - - - -
20/06:00am 17.2 W 11 13 1019.1 - 0.0 - - - - - - -
20/05:30am 17.2 W 11 13 1018.7 - 0.0 - - - - - - -
20/05:00am 17.2 W 11 13 1018.4 - 0.0 - - - - - - -
20/04:30am 17.3 W 11 13 1018.2 - 0.0 - - - - - - -
20/04:00am 17.6 W 11 13 1018.0 - 0.0 - - - - - - -
20/03:30am 18.0 WNW 10 13 1017.8 - 0.0 - - - - - - -
20/03:00am 18.1 WNW 10 13 1017.8 - 0.0 - - - - - - -
20/02:30am 18.3 WNW 10 12 1018.1 - 0.0 - - - - - - -
20/02:00am 18.7 NW 10 12 1018.3 - 0.0 - - - - - - -
20/01:30am 19.2 NW 10 13 1018.3 - 0.0 - - - - - - -
20/01:00am 19.4 NNW 11 15 1018.5 - 0.0 - - - - - - -
20/12:30am 19.6 N 14 17 1018.8 - 0.0 - - - - - - -
20/12:00am 19.6 N 12 15 1019.3 - 0.0 - - - - - - -
 
Date/Time
EST
Temp

°C
Wind Pressure Rain
since 9am
mm
Weather Cloud Vis
km
Sea
Height
m
Swell
Dir
 
Speed
knots
Gust
knots
hPa Trend Height
m
Period
s
Dir
19/11:30pm 19.5 N 11 14 1019.4 - 0.0 - - - - - - -
19/11:00pm 19.6 N 13 16 1019.5 - 0.0 - - - - - - -
19/10:30pm 19.4 N 13 16 1019.5 - 0.0 - - - - - - -
19/10:00pm 19.3 NNE 14 17 1019.4 - 0.0 - - - - - - -
19/09:30pm 19.4 NNE 15 18 1019.3 - 0.0 - - - - - - -
19/09:00pm 19.2 NNE 14 18 1019.2 - 0.0 - - - - - - -
19/08:30pm 19.2 NNE 13 19 1019.3 - 0.0 - - - - - - -
19/08:00pm 19.4 NNE 15 18 1019.1 - 0.0 - - - - - - -
19/07:30pm 19.4 NNE 15 19 1018.8 - 0.0 - - - - - - -
19/07:00pm 19.4 NNE 15 19 1018.5 - 0.0 - - - - - - -
19/06:30pm 19.4 NNE 14 16 1018.2 - 0.0 - - - - - - -
19/06:00pm 19.4 NE 13 17 1017.6 - 0.0 - - - - - - -
19/05:30pm 19.5 NE 14 17 1017.3 - 0.0 - - - - - - -
19/05:00pm 19.6 NE 15 17 1016.7 - 0.0 - - - - - - -
19/04:30pm 19.7 ENE 16 19 1016.5 - 0.0 - - - - - - -
19/04:00pm 19.9 ENE 14 17 1016.6 - 0.0 - - - - - - -
19/03:30pm 20.1 NE 13 15 1016.6 - 0.0 - - - - - - -
19/03:00pm 20.5 NE 12 15 1016.7 - 0.0 - - - - - - -
19/02:30pm 20.5 NE 12 15 1016.9 - 0.0 - - - - - - -
19/02:00pm 20.7 ENE 11 14 1017.2 - 0.0 - - - - - - -
19/01:30pm 21.0 ENE 9 11 1017.8 - 0.0 - - - - - - -
19/01:00pm 22.1 NE 6 8 1018.4 - 0.0 - - - - - - -
19/12:30pm 22.8 N 5 7 1019.0 - 0.0 - - - - - - -
19/12:00pm 21.5 N 5 7 1019.5 - 0.0 - - - - - - -
19/11:30am 21.3 N 5 7 1019.9 - 0.0 - - - - - - -
19/11:00am 21.3 N 5 7 1020.4 - 0.0 - - - - - - -
19/10:30am 21.9 N 5 7 1020.7 - 0.0 - - - - - - -
19/10:00am 21.0 NNW 5 7 1021.0 - 0.0 - - - - - - -
19/09:30am 21.1 N 5 7 1021.2 - 0.0 - - - - - - -
19/09:00am 21.5 N 5 7 1021.3 - 0.0 - - - - - - -
19/08:30am 20.3 N 4 5 1021.2 - 0.0 - - - - - - -
19/08:00am 19.8 NNW 4 5 1021.1 - 0.0 - - - - - - -
19/07:30am 19.3 NNW 4 5 1020.8 - 0.0 - - - - - - -
19/07:00am 17.8 WNW 5 6 1020.4 - 0.0 - - - - - - -
19/06:30am 16.8 W 7 7 1020.2 - 0.0 - - - - - - -
19/06:00am 16.5 W 7 9 1020.0 - 0.0 - - - - - - -
19/05:30am 18.3 NNE 8 11 1019.7 - 0.0 - - - - - - -
19/05:00am 18.2 NNE 8 9 1019.5 - 0.0 - - - - - - -
19/04:30am 18.1 NNE 8 10 1019.0 - 0.0 - - - - - - -
19/04:00am 18.0 NNE 5 7 1019.1 - 0.0 - - - - - - -
19/03:30am 18.2 ENE 3 4 1018.9 - 0.0 - - - - - - -
19/03:00am 18.3 NNE 4 5 1018.8 - 0.0 - - - - - - -
19/02:30am 18.2 NNE 5 6 1018.8 - 0.0 - - - - - - -
19/02:00am 18.5 N 4 5 1018.9 - 0.0 - - - - - - -
19/01:30am 18.6 N 4 5 1019.1 - 0.0 - - - - - - -
19/01:00am 18.6 N 6 7 1019.2 - 0.0 - - - - - - -
19/12:30am 18.5 N 5 6 1019.4 - 0.0 - - - - - - -
19/12:00am 18.5 N 6 7 1019.5 - 0.0 - - - - - - -
 
Date/Time
EST
Temp

°C
Wind Pressure Rain
since 9am
mm
Weather Cloud Vis
km
Sea
Height
m
Swell
Dir
 
Speed
knots
Gust
knots
hPa Trend Height
m
Period
s
Dir
18/11:30pm 18.7 NNE 6 7 1019.7 - 0.0 - - - - - - -
18/11:00pm 18.6 NE 6 8 1019.8 - 0.0 - - - - - - -
18/10:30pm 18.6 NE 6 7 1019.9 - 0.0 - - - - - - -
18/10:00pm 18.7 NE 7 9 1019.8 - 0.0 - - - - - - -
18/09:30pm 18.8 NNE 9 11 1019.6 - 0.0 - - - - - - -
18/09:00pm 18.9 NE 11 13 1019.4 - 0.0 - - - - - - -
18/08:30pm 18.9 ENE 11 13 1019.2 - 0.0 - - - - - - -
18/08:00pm 19.0 NE 13 16 1019.0 - 0.0 - - - - - - -
18/07:30pm 19.1 NE 13 16 1018.7 - 0.0 - - - - - - -
18/07:00pm 19.1 ENE 13 15 1018.2 - 0.0 - - - - - - -
18/06:30pm 19.1 ENE 15 17 1017.6 - 0.0 - - - - - - -
18/06:00pm 19.1 E 14 16 1017.3 - 0.0 - - - - - - -
18/05:30pm 19.1 E 14 16 1016.8 - 0.0 - - - - - - -
18/05:00pm 19.5 E 14 17 1016.4 - 0.0 - - - - - - -
18/04:30pm 19.7 E 15 17 1016.0 - 0.0 - - - - - - -
18/04:00pm 19.9 E 15 17 1015.7 - 0.0 - - - - - - -
18/03:30pm 20.3 E 13 14 1015.6 - 0.0 - - - - - - -
18/03:00pm 20.5 E 13 16 1015.6 - 0.0 - - - - - - -
18/02:30pm 20.9 E 14 16 1015.7 - 0.0 - - - - - - -
18/02:00pm 21.2 ESE 13 15 1016.0 - 0.0 - - - - - - -
18/01:30pm 22.0 ESE 10 12 1016.2 - 0.0 - - - - - - -
18/01:00pm 22.1 SE 11 12 1016.7 - 0.0 - - - - - - -
18/12:30pm 22.5 SE 12 15 1017.0 - 0.0 - - - - - - -
18/12:00pm 22.8 SE 10 14 1017.5 - 0.0 - - - - - - -

Other Formats:

Comma delimited format used in spreadsheet applications
http://www.bom.gov.au/fwo/IDQ60701/IDQ60701.94594.axf

JavaScript Object Notation format (JSON) in row-major order
http://www.bom.gov.au/fwo/IDQ60701/IDQ60701.94594.json